createdAt,value
2019-02-22T00:00:50.199Z,99.90
2019-02-22T00:03:20.605Z,99.90
2019-02-22T00:05:50.984Z,99.90
2019-02-22T00:08:21.394Z,99.90
2019-02-22T00:10:51.761Z,99.90
2019-02-22T00:13:22.122Z,99.90
2019-02-22T00:15:52.459Z,99.90
2019-02-22T00:18:22.812Z,99.90
2019-02-22T00:20:53.469Z,99.90
2019-02-22T00:23:23.820Z,99.90
2019-02-22T00:25:55.222Z,99.90
2019-02-22T00:28:25.574Z,99.90
2019-02-22T00:30:55.909Z,99.90
2019-02-22T00:33:26.269Z,99.90
2019-02-22T00:35:56.633Z,99.90
2019-02-22T00:38:27.325Z,99.90
2019-02-22T00:40:58.617Z,99.90
2019-02-22T00:43:29.057Z,99.90
2019-02-22T00:45:59.381Z,99.90
2019-02-22T00:48:29.737Z,99.90
2019-02-22T00:51:01.161Z,99.90
2019-02-22T00:53:31.537Z,99.90
2019-02-22T00:56:01.908Z,99.90
2019-02-22T00:58:32.240Z,99.90
2019-02-22T01:01:02.600Z,99.90
2019-02-22T01:03:32.929Z,99.90
2019-02-22T01:06:03.648Z,99.90
2019-02-22T01:08:33.970Z,99.90
2019-02-22T01:11:04.380Z,99.90
2019-02-22T01:13:34.686Z,99.90
2019-02-22T01:16:05.093Z,99.90
2019-02-22T01:18:35.372Z,99.90
2019-02-22T01:21:05.741Z,99.90
2019-02-22T01:23:36.089Z,99.90
2019-02-22T01:26:06.418Z,99.90
2019-02-22T01:28:36.771Z,99.90
2019-02-22T01:31:07.101Z,99.90
2019-02-22T01:33:37.529Z,99.90
2019-02-22T01:36:07.854Z,99.90
2019-02-22T01:38:38.211Z,99.90
2019-02-22T01:41:08.561Z,99.90
2019-02-22T01:43:39.005Z,99.90
2019-02-22T01:46:09.330Z,99.90
2019-02-22T01:48:39.861Z,99.90
2019-02-22T01:51:10.194Z,99.90
2019-02-22T01:53:40.537Z,99.90
2019-02-22T01:56:11.117Z,99.90
2019-02-22T01:58:48.629Z,99.90
2019-02-22T02:01:13.413Z,99.90
2019-02-22T02:03:43.749Z,99.90
2019-02-22T02:06:14.260Z,99.90
2019-02-22T02:08:44.998Z,99.90
2019-02-22T02:11:15.361Z,99.90
2019-02-22T02:13:45.689Z,99.90
2019-02-22T02:16:16.050Z,99.90
2019-02-22T02:18:46.384Z,99.90
2019-02-22T02:21:16.801Z,99.90
2019-02-22T02:23:47.393Z,99.90
2019-02-22T02:26:17.778Z,99.90
2019-02-22T02:28:48.105Z,99.90
2019-02-22T02:31:18.541Z,99.90
2019-02-22T02:33:48.877Z,99.90
2019-02-22T02:36:19.237Z,99.90
2019-02-22T02:38:49.577Z,99.90
2019-02-22T02:41:20.029Z,99.90
2019-02-22T02:43:50.352Z,99.90
2019-02-22T02:46:20.722Z,99.90
2019-02-22T02:48:51.057Z,99.90
2019-02-22T02:51:21.385Z,99.90
2019-02-22T02:53:51.762Z,99.90
2019-02-22T02:56:22.121Z,99.90
2019-02-22T02:58:52.467Z,99.90
2019-02-22T03:01:22.792Z,99.90
2019-02-22T03:03:53.174Z,99.90
2019-02-22T03:06:42.470Z,99.90
2019-02-22T03:09:12.913Z,99.90
2019-02-22T03:11:43.233Z,99.90
2019-02-22T03:14:13.581Z,99.90
2019-02-22T03:16:43.929Z,99.90
2019-02-22T03:19:14.721Z,99.90
2019-02-22T03:21:45.044Z,99.90
2019-02-22T03:24:16.553Z,99.90
2019-02-22T03:26:46.886Z,99.90
2019-02-22T03:29:17.215Z,99.90
2019-02-22T03:31:47.571Z,99.70
2019-02-22T03:34:17.970Z,99.70
2019-02-22T03:36:48.406Z,99.50
2019-02-22T03:39:18.730Z,99.50
2019-02-22T03:41:49.194Z,99.60
2019-02-22T03:44:19.495Z,99.40
2019-02-22T03:46:49.857Z,99.50
2019-02-22T03:49:20.174Z,99.30
2019-02-22T03:51:50.520Z,99.30
2019-02-22T03:54:20.868Z,99.30
2019-02-22T03:56:51.245Z,99.40
2019-02-22T03:59:21.553Z,99.50
2019-02-22T04:01:51.993Z,99.30
2019-02-22T04:04:22.308Z,99.10
2019-02-22T04:06:52.651Z,99.40
2019-02-22T04:09:22.993Z,99.10
2019-02-22T04:11:53.318Z,99.40
2019-02-22T04:14:23.669Z,99.10
2019-02-22T04:16:53.985Z,99.20
2019-02-22T04:19:24.350Z,99.20
2019-02-22T04:21:54.673Z,99.10
2019-02-22T04:24:25.046Z,99.00
2019-02-22T04:26:55.370Z,99.00
2019-02-22T04:29:25.719Z,99.00
2019-02-22T04:31:56.061Z,99.00
2019-02-22T04:34:26.387Z,98.90
2019-02-22T04:36:56.742Z,99.00
2019-02-22T04:39:27.071Z,99.10
2019-02-22T04:41:58.367Z,99.20
2019-02-22T04:44:28.957Z,99.40
2019-02-22T04:46:59.391Z,98.50
2019-02-22T04:49:29.711Z,98.10
2019-02-22T04:52:00.061Z,98.40
2019-02-22T04:54:30.373Z,98.50
2019-02-22T04:57:00.838Z,98.70
2019-02-22T04:59:31.163Z,99.20
2019-02-22T05:02:01.562Z,98.80
2019-02-22T05:04:31.873Z,99.00
2019-02-22T05:07:02.242Z,99.10
2019-02-22T05:09:32.579Z,99.40
2019-02-22T05:12:10.973Z,99.00
2019-02-22T05:14:34.901Z,99.20
2019-02-22T05:17:05.344Z,98.70
2019-02-22T05:19:35.685Z,98.90
2019-02-22T05:22:06.352Z,99.10
2019-02-22T05:24:36.683Z,99.20
2019-02-22T05:27:07.049Z,99.40
2019-02-22T05:29:38.292Z,99.20
2019-02-22T05:32:08.678Z,99.20
2019-02-22T05:34:39.013Z,99.50
2019-02-22T05:37:09.394Z,99.80
2019-02-22T05:39:39.728Z,99.70
2019-02-22T05:42:19.971Z,99.60
2019-02-22T05:44:42.231Z,99.80
2019-02-22T05:47:12.561Z,99.70
2019-02-22T05:49:42.915Z,99.70
2019-02-22T05:52:13.279Z,99.70
2019-02-22T05:54:43.611Z,99.60
2019-02-22T05:57:14.454Z,99.80
2019-02-22T05:59:44.953Z,99.90
2019-02-22T06:02:15.347Z,99.90
2019-02-22T06:04:45.677Z,99.90
2019-02-22T06:07:16.121Z,99.90
2019-02-22T06:09:46.458Z,99.90
2019-02-22T06:12:18.567Z,99.70
2019-02-22T06:14:48.797Z,99.80
2019-02-22T06:17:19.129Z,99.60
2019-02-22T06:19:49.510Z,99.60
2019-02-22T06:22:29.161Z,99.20
2019-02-22T06:24:51.833Z,98.90
2019-02-22T06:27:22.173Z,98.80
2019-02-22T06:29:52.556Z,98.60
2019-02-22T06:32:23.269Z,98.70
2019-02-22T06:34:53.633Z,98.60
2019-02-22T06:37:23.958Z,98.20
2019-02-22T06:39:54.317Z,98.50
2019-02-22T06:42:24.653Z,98.60
2019-02-22T06:44:55.034Z,98.40
2019-02-22T06:47:25.361Z,98.30
2019-02-22T06:49:55.720Z,98.00
2019-02-22T06:52:26.065Z,97.70
2019-02-22T06:54:56.393Z,97.90
2019-02-22T06:57:26.899Z,97.50
2019-02-22T06:59:57.178Z,97.50
2019-02-22T07:02:27.517Z,97.20
2019-02-22T07:04:57.848Z,97.40
2019-02-22T07:07:28.207Z,97.30
2019-02-22T07:09:58.543Z,96.90
2019-02-22T07:12:38.852Z,96.80
2019-02-22T07:15:09.294Z,96.70
2019-02-22T07:17:39.668Z,96.10
2019-02-22T07:20:11.181Z,96.20
2019-02-22T07:22:41.976Z,96.30
2019-02-22T07:25:12.403Z,96.60
2019-02-22T07:27:43.180Z,96.60
2019-02-22T07:30:13.531Z,96.40
2019-02-22T07:32:43.920Z,96.30
2019-02-22T07:35:14.653Z,96.50
2019-02-22T07:37:45.061Z,96.50
2019-02-22T07:40:15.382Z,96.30
2019-02-22T07:42:45.735Z,96.10
2019-02-22T07:45:16.077Z,96.10
2019-02-22T07:47:46.394Z,95.80
2019-02-22T07:50:16.748Z,95.90
2019-02-22T07:52:47.074Z,95.50
2019-02-22T07:55:17.429Z,95.40
2019-02-22T07:57:47.810Z,95.70
2019-02-22T08:00:18.182Z,94.30
2019-02-22T08:02:48.533Z,94.50
2019-02-22T08:05:19.096Z,94.40
2019-02-22T08:07:49.458Z,94.20
2019-02-22T08:10:19.807Z,94.20
2019-02-22T08:12:50.224Z,94.40
2019-02-22T08:15:20.555Z,93.80
2019-02-22T08:17:50.992Z,93.30
2019-02-22T08:20:21.385Z,93.20
2019-02-22T08:22:51.802Z,93.00
2019-02-22T08:25:22.141Z,91.90
2019-02-22T08:27:54.048Z,90.60
2019-02-22T08:30:24.584Z,88.80
2019-02-22T08:32:55.034Z,86.80
2019-02-22T08:35:25.361Z,85.20
2019-02-22T08:37:55.752Z,77.60
2019-02-22T08:40:39.410Z,73.60
2019-02-22T08:43:09.717Z,71.40
2019-02-22T08:45:52.720Z,65.80
2019-02-22T08:48:23.925Z,63.60
2019-02-22T08:50:54.289Z,67.40
2019-02-22T08:53:24.633Z,65.20
2019-02-22T08:55:55.736Z,62.10
2019-02-22T08:58:26.517Z,68.00
2019-02-22T09:00:56.854Z,66.10
2019-02-22T09:03:27.214Z,61.40
2019-02-22T09:05:57.538Z,61.60
2019-02-22T09:08:27.901Z,58.60
2019-02-22T09:11:00.764Z,57.50
2019-02-22T09:13:30.503Z,60.50
2019-02-22T09:16:01.130Z,58.40
2019-02-22T09:18:31.825Z,60.60
2019-02-22T09:21:02.155Z,59.60
2019-02-22T09:23:32.515Z,58.80
2019-02-22T09:26:03.166Z,55.40
2019-02-22T09:28:33.518Z,58.30
2019-02-22T09:31:03.853Z,55.30
2019-02-22T09:33:34.197Z,55.60
2019-02-22T09:36:04.524Z,54.10
2019-02-22T09:38:35.961Z,44.80
2019-02-22T09:41:06.285Z,45.40
2019-02-22T09:43:36.641Z,50.10
2019-02-22T09:46:07.897Z,53.20
2019-02-22T09:48:38.346Z,51.30
2019-02-22T09:51:09.753Z,49.50
2019-02-22T09:53:40.381Z,48.50
2019-02-22T09:56:11.090Z,49.00
2019-02-22T09:58:42.163Z,46.80
2019-02-22T10:01:12.817Z,45.70
2019-02-22T10:03:43.257Z,45.00
2019-02-22T10:06:14.566Z,47.80
2019-02-22T10:08:45.805Z,47.50
2019-02-22T10:11:16.801Z,53.60
2019-02-22T10:13:47.505Z,53.90
2019-02-22T10:16:19.156Z,51.00
2019-02-22T10:18:49.897Z,56.20
2019-02-22T10:21:20.713Z,56.60
2019-02-22T10:23:52.201Z,59.30
2019-02-22T10:26:23.669Z,53.80
2019-02-22T10:28:53.953Z,57.40
2019-02-22T10:31:24.273Z,60.10
2019-02-22T10:33:55.035Z,58.40
2019-02-22T10:36:25.933Z,58.70
2019-02-22T10:38:56.293Z,57.20
2019-02-22T10:41:26.769Z,58.80
2019-02-22T10:43:57.204Z,59.10
2019-02-22T10:46:27.521Z,57.60
2019-02-22T10:48:57.903Z,60.40
2019-02-22T10:51:28.226Z,60.10
2019-02-22T10:53:58.573Z,59.00
2019-02-22T10:56:29.053Z,60.20
2019-02-22T10:58:59.425Z,59.20
2019-02-22T11:01:29.753Z,60.40
2019-02-22T11:04:00.201Z,60.90
2019-02-22T11:06:32.425Z,61.30
2019-02-22T11:09:05.291Z,59.20
2019-02-22T11:11:35.789Z,61.20
2019-02-22T11:14:06.149Z,59.80
2019-02-22T11:16:36.470Z,59.30
2019-02-22T11:19:06.845Z,56.60
2019-02-22T11:21:37.157Z,58.10
2019-02-22T11:24:07.501Z,60.10
2019-02-22T11:26:37.850Z,61.70
2019-02-22T11:29:08.169Z,62.90
2019-02-22T11:31:39.182Z,63.20
2019-02-22T11:34:09.861Z,64.00
2019-02-22T11:36:40.225Z,62.40
2019-02-22T11:39:13.807Z,62.80
2019-02-22T11:41:46.469Z,63.00
2019-02-22T11:44:17.857Z,63.90
2019-02-22T11:46:48.245Z,61.60
2019-02-22T11:49:18.576Z,59.40
2019-02-22T11:51:49.017Z,60.20
2019-02-22T11:54:19.613Z,59.80
2019-02-22T11:56:50.072Z,60.20
2019-02-22T11:59:21.182Z,62.90
2019-02-22T12:01:51.605Z,61.70
2019-02-22T12:04:21.970Z,59.90
2019-02-22T12:06:52.285Z,62.80
2019-02-22T12:09:22.714Z,63.20
2019-02-22T12:11:53.109Z,63.30
2019-02-22T12:14:23.614Z,63.50
2019-02-22T12:16:54.069Z,61.70
2019-02-22T12:19:24.397Z,60.70
2019-02-22T12:21:55.005Z,58.40
2019-02-22T12:24:25.813Z,58.20
2019-02-22T12:26:56.141Z,58.70
2019-02-22T12:29:26.497Z,59.40
2019-02-22T12:31:56.817Z,59.70
2019-02-22T12:34:28.430Z,59.50
2019-02-22T12:36:58.806Z,60.20
2019-02-22T12:39:29.154Z,59.50
2019-02-22T12:41:59.476Z,60.60
2019-02-22T12:44:29.877Z,61.70
2019-02-22T12:47:01.144Z,61.30
2019-02-22T12:49:31.915Z,60.80
2019-02-22T12:52:02.236Z,62.80
2019-02-22T12:54:32.590Z,62.20
2019-02-22T12:57:03.020Z,60.50
2019-02-22T12:59:33.405Z,59.00
2019-02-22T13:02:04.098Z,58.20
2019-02-22T13:04:35.950Z,59.10
2019-02-22T13:07:06.277Z,63.20
2019-02-22T13:09:37.133Z,62.60
2019-02-22T13:12:14.010Z,61.10
2019-02-22T13:14:39.682Z,58.50
2019-02-22T13:17:10.005Z,51.90
2019-02-22T13:19:40.778Z,56.10
2019-02-22T13:22:11.097Z,57.10
2019-02-22T13:24:41.554Z,57.00
2019-02-22T13:27:11.890Z,54.70
2019-02-22T13:29:43.329Z,55.60
2019-02-22T13:32:13.645Z,56.90
2019-02-22T13:34:43.999Z,57.90
2019-02-22T13:37:15.434Z,59.10
2019-02-22T13:39:45.875Z,57.90
2019-02-22T13:42:16.581Z,60.90
2019-02-22T13:44:47.182Z,59.70
2019-02-22T13:47:17.441Z,60.00
2019-02-22T13:49:48.023Z,59.30
2019-02-22T13:52:18.445Z,60.40
2019-02-22T13:54:48.766Z,58.50
2019-02-22T13:57:19.661Z,57.90
2019-02-22T13:59:49.981Z,56.80
2019-02-22T14:02:20.706Z,55.70
2019-02-22T14:04:51.033Z,55.30
2019-02-22T14:07:21.773Z,55.30
2019-02-22T14:09:52.097Z,56.50
2019-02-22T14:12:22.906Z,56.70
2019-02-22T14:14:54.304Z,56.70
2019-02-22T14:17:24.681Z,58.00
2019-02-22T14:19:55.026Z,57.00
2019-02-22T14:22:25.405Z,57.40
2019-02-22T14:24:56.789Z,59.00
2019-02-22T14:27:27.141Z,56.70
2019-02-22T14:29:57.765Z,55.20
2019-02-22T14:32:28.225Z,55.60
2019-02-22T14:34:58.578Z,56.10
2019-02-22T14:37:28.893Z,58.30
2019-02-22T14:40:03.481Z,55.80
2019-02-22T14:42:31.281Z,55.40
2019-02-22T14:45:01.988Z,55.30
2019-02-22T14:47:32.538Z,56.20
2019-02-22T14:50:02.890Z,57.30
2019-02-22T14:52:33.341Z,58.60
2019-02-22T14:55:03.653Z,58.80
2019-02-22T14:57:34.185Z,55.90
2019-02-22T15:00:05.534Z,58.80
2019-02-22T15:02:36.451Z,58.00
2019-02-22T15:05:09.176Z,60.50
2019-02-22T15:07:39.687Z,59.00
2019-02-22T15:10:10.491Z,59.60
2019-02-22T15:12:40.873Z,60.40
2019-02-22T15:15:11.923Z,60.20
2019-02-22T15:17:46.695Z,60.80
2019-02-22T15:20:17.377Z,60.10
2019-02-22T15:22:48.797Z,59.90
2019-02-22T15:25:19.193Z,59.20
2019-02-22T15:27:49.529Z,58.00
2019-02-22T15:30:19.956Z,58.80
2019-02-22T15:32:50.843Z,58.90
2019-02-22T15:35:21.215Z,60.40
2019-02-22T15:37:51.553Z,60.90
2019-02-22T15:40:21.942Z,62.20
2019-02-22T15:42:52.265Z,63.10
2019-02-22T15:45:22.644Z,63.00
2019-02-22T15:47:52.985Z,63.90
2019-02-22T15:50:23.812Z,63.20
2019-02-22T15:52:54.221Z,63.10
2019-02-22T15:55:24.586Z,64.10
2019-02-22T15:57:55.078Z,65.20
2019-02-22T16:00:27.362Z,65.40
2019-02-22T16:02:57.702Z,66.20
2019-02-22T16:05:34.289Z,67.10
2019-02-22T16:08:07.475Z,65.70
2019-02-22T16:10:36.720Z,66.40
2019-02-22T16:13:07.436Z,65.90
2019-02-22T16:15:37.807Z,66.60
2019-02-22T16:18:19.935Z,66.50
2019-02-22T16:20:50.395Z,66.60
2019-02-22T16:23:20.713Z,66.70
2019-02-22T16:25:51.389Z,66.20
2019-02-22T16:28:21.714Z,67.70
2019-02-22T16:30:52.473Z,67.40
2019-02-22T16:33:22.793Z,68.00
2019-02-22T16:35:53.173Z,69.00
2019-02-22T16:38:23.502Z,68.20
2019-02-22T16:40:54.246Z,69.10
2019-02-22T16:43:24.569Z,69.40
2019-02-22T16:45:54.950Z,70.00
2019-02-22T16:48:25.371Z,70.30
2019-02-22T16:50:55.736Z,70.30
2019-02-22T16:53:26.094Z,70.50
2019-02-22T16:55:56.433Z,70.60
2019-02-22T16:58:27.900Z,71.20
2019-02-22T17:00:58.224Z,71.30
2019-02-22T17:03:28.587Z,71.60
2019-02-22T17:05:58.966Z,71.70
2019-02-22T17:08:29.325Z,72.30
2019-02-22T17:10:59.648Z,72.40
2019-02-22T17:13:30.078Z,72.70
2019-02-22T17:16:00.425Z,72.90
2019-02-22T17:18:30.797Z,74.00
2019-02-22T17:21:01.133Z,74.20
2019-02-22T17:23:31.596Z,73.40
2019-02-22T17:26:01.925Z,73.60
2019-02-22T17:28:32.321Z,74.10
2019-02-22T17:31:02.652Z,74.80
2019-02-22T17:33:33.105Z,74.40
2019-02-22T17:36:03.787Z,75.60
2019-02-22T17:38:34.145Z,76.00
2019-02-22T17:41:04.466Z,76.60
2019-02-22T17:43:34.823Z,76.60
2019-02-22T17:46:05.174Z,77.10
2019-02-22T17:48:35.517Z,77.70
2019-02-22T17:51:05.913Z,77.80
2019-02-22T17:53:36.640Z,78.60
2019-02-22T17:56:12.070Z,79.80
2019-02-22T17:58:42.367Z,80.40
2019-02-22T18:01:12.721Z,81.80
2019-02-22T18:03:43.049Z,81.20
2019-02-22T18:06:13.520Z,81.10
2019-02-22T18:08:43.838Z,80.30
2019-02-22T18:11:14.213Z,80.50
2019-02-22T18:13:44.545Z,79.60
2019-02-22T18:16:14.922Z,80.40
2019-02-22T18:18:45.249Z,80.20
2019-02-22T18:21:15.914Z,79.70
2019-02-22T18:23:46.274Z,79.80
2019-02-22T18:26:17.023Z,80.40
2019-02-22T18:28:47.359Z,80.20
2019-02-22T18:31:17.713Z,81.10
2019-02-22T18:33:48.066Z,81.30
2019-02-22T18:36:18.824Z,81.10
2019-02-22T18:38:49.156Z,82.60
2019-02-22T18:41:19.513Z,82.20
2019-02-22T18:43:49.877Z,84.60
2019-02-22T18:46:20.205Z,83.60
2019-02-22T18:48:50.909Z,84.30
2019-02-22T18:51:21.249Z,83.30
2019-02-22T18:53:51.593Z,83.30
2019-02-22T18:56:21.949Z,84.00
2019-02-22T18:58:52.458Z,83.60
2019-02-22T19:01:22.791Z,83.50
2019-02-22T19:03:53.161Z,84.10
2019-02-22T19:06:23.509Z,83.90
2019-02-22T19:08:53.900Z,83.60
2019-02-22T19:11:24.239Z,84.20
2019-02-22T19:13:54.613Z,85.00
2019-02-22T19:16:26.029Z,84.70
2019-02-22T19:18:56.421Z,84.70
2019-02-22T19:21:26.757Z,85.00
2019-02-22T19:23:57.125Z,86.30
2019-02-22T19:26:28.836Z,86.80
2019-02-22T19:28:59.217Z,87.60
2019-02-22T19:31:29.569Z,86.40
2019-02-22T19:33:59.901Z,86.30
2019-02-22T19:36:31.621Z,86.70
2019-02-22T19:39:02.010Z,86.90
2019-02-22T19:41:33.969Z,86.80
2019-02-22T19:44:04.366Z,86.20
2019-02-22T19:46:34.697Z,86.80
2019-02-22T19:49:05.507Z,86.90
2019-02-22T19:51:35.853Z,86.30
2019-02-22T19:54:06.334Z,86.30
2019-02-22T19:56:36.685Z,85.70
2019-02-22T19:59:07.176Z,86.30
2019-02-22T20:01:37.551Z,85.00
2019-02-22T20:04:07.983Z,84.60
2019-02-22T20:06:38.417Z,84.70
2019-02-22T20:09:09.189Z,84.20
2019-02-22T20:11:39.617Z,84.70
2019-02-22T20:14:09.973Z,85.00
2019-02-22T20:16:40.433Z,84.60
2019-02-22T20:19:10.775Z,85.00
2019-02-22T20:21:41.153Z,84.80
2019-02-22T20:24:11.545Z,84.90
2019-02-22T20:26:42.030Z,84.30
2019-02-22T20:29:12.373Z,85.40
2019-02-22T20:31:42.794Z,85.10
2019-02-22T20:34:13.089Z,84.90
2019-02-22T20:36:44.120Z,84.70
2019-02-22T20:39:14.748Z,84.80
2019-02-22T20:41:45.153Z,85.00
2019-02-22T20:44:15.574Z,85.10
2019-02-22T20:46:45.976Z,85.60
2019-02-22T20:49:16.341Z,84.70
2019-02-22T20:51:46.677Z,85.00
2019-02-22T20:54:17.051Z,84.40
2019-02-22T20:56:48.069Z,84.60
2019-02-22T20:59:18.429Z,84.00
2019-02-22T21:01:48.797Z,83.90
2019-02-22T21:04:19.162Z,83.50
2019-02-22T21:06:50.564Z,83.40
2019-02-22T21:09:21.025Z,83.00
2019-02-22T21:11:51.408Z,82.90
2019-02-22T21:14:22.085Z,82.60
2019-02-22T21:16:52.905Z,82.40
2019-02-22T21:19:23.249Z,82.90
2019-02-22T21:21:54.061Z,84.10
2019-02-22T21:24:24.418Z,83.50
2019-02-22T21:26:55.559Z,83.20
2019-02-22T21:29:25.880Z,83.30
2019-02-22T21:31:56.898Z,82.60
2019-02-22T21:34:27.233Z,82.10
2019-02-22T21:36:57.605Z,82.50
2019-02-22T21:39:27.961Z,81.20
2019-02-22T21:41:58.289Z,81.80
2019-02-22T21:44:28.653Z,82.20
2019-02-22T21:47:00.372Z,82.30
2019-02-22T21:49:31.125Z,81.50
2019-02-22T21:52:01.463Z,82.30
2019-02-22T21:54:31.849Z,82.30
2019-02-22T21:57:02.329Z,82.00
2019-02-22T21:59:32.733Z,82.60
2019-02-22T22:02:03.082Z,83.80
2019-02-22T22:04:33.414Z,84.00
2019-02-22T22:07:03.779Z,83.10
2019-02-22T22:09:34.113Z,84.10
2019-02-22T22:12:04.590Z,84.20
2019-02-22T22:14:34.942Z,83.80
2019-02-22T22:17:05.306Z,84.60
2019-02-22T22:19:35.641Z,84.80
2019-02-22T22:22:05.996Z,85.20
2019-02-22T22:24:36.342Z,85.40
2019-02-22T22:27:06.713Z,84.40
2019-02-22T22:29:37.077Z,82.30
2019-02-22T22:32:07.412Z,82.40
2019-02-22T22:34:37.876Z,81.60
2019-02-22T22:37:08.201Z,82.30
2019-02-22T22:39:38.553Z,84.00
2019-02-22T22:42:08.905Z,81.80
2019-02-22T22:44:39.240Z,81.90
2019-02-22T22:47:09.689Z,81.80
2019-02-22T22:49:40.017Z,81.70
2019-02-22T22:52:10.394Z,81.60
2019-02-22T22:54:40.726Z,81.40
2019-02-22T22:57:11.320Z,80.10
2019-02-22T22:59:41.645Z,80.90
2019-02-22T23:02:12.045Z,79.90
2019-02-22T23:04:42.441Z,79.80
2019-02-22T23:07:12.789Z,79.70
2019-02-22T23:09:43.144Z,79.60
2019-02-22T23:12:13.585Z,79.00
2019-02-22T23:14:43.945Z,79.20
2019-02-22T23:17:14.384Z,79.00
2019-02-22T23:19:44.794Z,79.80
2019-02-22T23:22:15.181Z,79.20
2019-02-22T23:24:45.521Z,79.20
2019-02-22T23:27:15.897Z,79.40
2019-02-22T23:29:46.301Z,79.80
2019-02-22T23:32:16.741Z,80.10
2019-02-22T23:34:47.089Z,79.70
2019-02-22T23:37:17.457Z,80.20
2019-02-22T23:39:47.805Z,79.70
2019-02-22T23:42:19.757Z,81.30
2019-02-22T23:44:50.191Z,80.30
2019-02-22T23:47:20.517Z,80.00
2019-02-22T23:49:50.893Z,81.00
2019-02-22T23:52:21.229Z,80.10
2019-02-22T23:54:51.573Z,79.80
2019-02-22T23:57:23.081Z,80.50
2019-02-22T23:59:53.449Z,80.40
